createdAt,value
2022-08-05T00:00:17.866Z,23.37
2022-08-05T00:02:50.685Z,23.37
2022-08-05T00:06:02.911Z,23.08
2022-08-05T00:08:30.861Z,23.11
2022-08-05T00:11:00.864Z,23.05
2022-08-05T00:13:39.112Z,23.09
2022-08-05T00:16:14.256Z,23.23
2022-08-05T00:18:46.034Z,23.09
2022-08-05T00:21:16.901Z,23.00
2022-08-05T00:24:05.029Z,23.04
2022-08-05T00:26:33.276Z,23.10
2022-08-05T00:29:00.334Z,23.13
2022-08-05T00:31:52.923Z,23.11
2022-08-05T00:34:56.059Z,23.14
2022-08-05T00:37:12.653Z,22.94
2022-08-05T00:39:57.516Z,23.03
2022-08-05T00:42:37.930Z,22.79
2022-08-05T00:45:08.706Z,22.82
2022-08-05T00:47:56.302Z,22.60
2022-08-05T00:50:25.797Z,22.62
2022-08-05T00:52:55.006Z,22.63
2022-08-05T00:55:42.210Z,22.51
2022-08-05T00:58:12.709Z,22.57
2022-08-05T01:00:42.137Z,22.57
2022-08-05T01:03:12.671Z,22.70
2022-08-05T01:05:51.503Z,22.70
2022-08-05T01:08:41.465Z,22.79
2022-08-05T01:11:22.237Z,22.75
2022-08-05T01:13:58.809Z,22.73
2022-08-05T01:16:33.870Z,22.68
2022-08-05T01:19:20.168Z,22.61
2022-08-05T01:22:10.835Z,22.43
2022-08-05T01:25:24.431Z,22.37
2022-08-05T01:28:33.342Z,22.27
2022-08-05T01:31:09.230Z,22.24
2022-08-05T01:33:49.124Z,22.23
2022-08-05T01:36:20.965Z,22.15
2022-08-05T01:38:49.884Z,22.12
2022-08-05T01:41:21.983Z,22.20
2022-08-05T01:43:51.252Z,22.25
2022-08-05T01:46:41.387Z,22.33
2022-08-05T01:49:23.106Z,22.22
2022-08-05T01:51:56.008Z,22.26
2022-08-05T01:54:27.183Z,22.24
2022-08-05T01:58:13.190Z,22.21
2022-08-05T01:59:48.476Z,22.16
2022-08-05T02:02:17.963Z,22.29
2022-08-05T02:04:49.523Z,22.26
2022-08-05T02:07:22.025Z,22.13
2022-08-05T02:09:51.098Z,21.93
2022-08-05T02:12:25.331Z,21.88
2022-08-05T02:15:12.708Z,21.78
2022-08-05T02:18:32.992Z,22.05
2022-08-05T02:21:17.284Z,22.38
2022-08-05T02:23:49.076Z,22.66
2022-08-05T02:26:22.322Z,23.22
2022-08-05T02:28:50.504Z,23.33
2022-08-05T02:31:23.719Z,23.25
2022-08-05T02:33:57.199Z,23.22
2022-08-05T02:36:27.670Z,22.75
2022-08-05T02:39:00.171Z,22.26
2022-08-05T02:41:28.965Z,22.05
2022-08-05T02:44:13.285Z,21.94
2022-08-05T02:46:53.505Z,21.81
2022-08-05T02:49:35.855Z,21.91
2022-08-05T02:52:09.203Z,21.99
2022-08-05T02:54:41.420Z,22.03
2022-08-05T02:58:10.885Z,22.17
2022-08-05T03:00:00.252Z,22.02
2022-08-05T03:02:37.110Z,21.91
2022-08-05T03:05:07.666Z,21.87
2022-08-05T03:08:01.041Z,21.88
2022-08-05T03:10:25.167Z,21.78
2022-08-05T03:12:54.221Z,21.98
2022-08-05T03:15:23.501Z,21.88
2022-08-05T03:17:57.635Z,21.90
2022-08-05T03:20:25.304Z,21.89
2022-08-05T03:22:53.292Z,21.88
2022-08-05T03:25:33.054Z,21.77
2022-08-05T03:28:13.919Z,21.81
2022-08-05T03:30:42.629Z,21.95
2022-08-05T03:33:09.947Z,22.11
2022-08-05T03:35:41.283Z,21.98
2022-08-05T03:38:11.776Z,22.01
2022-08-05T03:40:48.528Z,21.84
2022-08-05T03:44:09.179Z,21.67
2022-08-05T03:46:05.122Z,21.78
2022-08-05T03:48:36.654Z,21.96
2022-08-05T03:52:38.009Z,22.00
2022-08-05T03:55:54.743Z,22.07
2022-08-05T03:57:18.961Z,22.13
2022-08-05T03:59:54.754Z,22.25
2022-08-05T04:02:37.604Z,22.22
2022-08-05T04:05:09.687Z,22.11
2022-08-05T04:07:58.080Z,22.13
2022-08-05T04:10:37.140Z,22.25
2022-08-05T04:13:07.785Z,22.27
2022-08-05T04:15:36.561Z,22.30
2022-08-05T04:18:07.168Z,22.43
2022-08-05T04:20:36.730Z,22.41
2022-08-05T04:23:04.010Z,22.51
2022-08-05T04:25:57.829Z,22.42
2022-08-05T04:28:19.988Z,22.54
2022-08-05T04:30:58.250Z,22.37
2022-08-05T04:34:18.549Z,22.52
2022-08-05T04:36:46.122Z,22.59
2022-08-05T04:39:02.717Z,22.54
2022-08-05T04:41:36.575Z,22.54
2022-08-05T04:44:09.398Z,22.62
2022-08-05T04:46:38.498Z,22.58
2022-08-05T04:49:12.299Z,22.63
2022-08-05T04:51:44.252Z,22.73
2022-08-05T04:54:12.063Z,22.77
2022-08-05T04:56:39.613Z,22.91
2022-08-05T04:59:17.464Z,22.96
2022-08-05T05:02:07.607Z,22.80
2022-08-05T05:04:43.846Z,23.03
2022-08-05T05:07:12.046Z,23.06
2022-08-05T05:09:43.011Z,23.13
2022-08-05T05:12:11.807Z,23.18
2022-08-05T05:14:49.461Z,23.11
2022-08-05T05:17:23.454Z,23.21
2022-08-05T05:19:56.551Z,23.25
2022-08-05T05:22:26.493Z,23.35
2022-08-05T05:25:00.319Z,23.59
2022-08-05T05:27:48.573Z,23.74
2022-08-05T05:30:31.046Z,23.72
2022-08-05T05:33:09.184Z,23.76
2022-08-05T05:35:45.627Z,23.96
2022-08-05T05:38:14.251Z,24.05
2022-08-05T05:40:49.678Z,24.15
2022-08-05T05:43:28.209Z,24.15
2022-08-05T05:46:13.694Z,24.10
2022-08-05T05:48:47.768Z,23.93
2022-08-05T05:51:23.154Z,24.07
2022-08-05T05:53:58.234Z,24.17
2022-08-05T05:56:32.368Z,24.18
2022-08-05T05:59:06.799Z,24.27
2022-08-05T06:01:38.061Z,24.28
2022-08-05T06:04:08.316Z,24.29
2022-08-05T06:06:47.744Z,24.35
2022-08-05T06:09:25.385Z,24.44
2022-08-05T06:12:02.042Z,24.54
2022-08-05T06:14:31.347Z,24.67
2022-08-05T06:16:59.527Z,24.79
2022-08-05T06:19:35.297Z,24.65
2022-08-05T06:22:04.718Z,24.70
2022-08-05T06:24:35.510Z,24.65
2022-08-05T06:27:04.126Z,24.86
2022-08-05T06:29:46.346Z,25.03
2022-08-05T06:32:24.803Z,25.10
2022-08-05T06:34:57.888Z,25.34
2022-08-05T06:37:39.412Z,25.34
2022-08-05T06:40:18.178Z,25.37
2022-08-05T06:42:52.434Z,25.52
2022-08-05T06:45:44.414Z,25.64
2022-08-05T06:48:44.270Z,25.92
2022-08-05T06:50:57.476Z,25.87
2022-08-05T06:53:28.481Z,25.67
2022-08-05T06:56:00.122Z,25.80
2022-08-05T06:58:35.471Z,26.03
2022-08-05T07:01:07.148Z,26.22
2022-08-05T07:03:35.094Z,26.30
2022-08-05T07:06:06.223Z,26.36
2022-08-05T07:08:47.959Z,26.02
2022-08-05T07:11:21.894Z,26.08
2022-08-05T07:14:20.307Z,26.07
2022-08-05T07:18:00.373Z,26.11
2022-08-05T07:20:23.070Z,26.14
2022-08-05T07:22:29.172Z,26.42
2022-08-05T07:25:23.450Z,26.64
2022-08-05T07:28:08.268Z,26.77
2022-08-05T07:30:39.850Z,26.81
2022-08-05T07:33:15.667Z,26.88
2022-08-05T07:36:03.459Z,27.00
2022-08-05T07:38:35.672Z,27.03
2022-08-05T07:42:13.795Z,27.21
2022-08-05T07:44:14.106Z,27.09
2022-08-05T07:46:48.505Z,26.82
2022-08-05T07:49:18.305Z,27.10
2022-08-05T07:51:52.944Z,27.17
2022-08-05T07:54:26.420Z,27.17
2022-08-05T07:57:14.690Z,27.30
2022-08-05T07:59:41.874Z,27.33
2022-08-05T08:02:16.446Z,27.43
2022-08-05T08:04:49.595Z,27.36
2022-08-05T08:07:23.103Z,27.43
2022-08-05T08:09:53.075Z,27.47
2022-08-05T08:12:35.036Z,27.56
2022-08-05T08:15:15.217Z,27.58
2022-08-05T08:17:52.961Z,27.57
2022-08-05T08:20:45.328Z,27.73
2022-08-05T08:24:01.931Z,27.90
2022-08-05T08:26:02.617Z,27.78
2022-08-05T08:28:36.293Z,27.84
2022-08-05T08:31:14.994Z,27.85
2022-08-05T08:33:45.080Z,27.87
2022-08-05T08:36:38.144Z,27.94
2022-08-05T08:38:59.810Z,28.06
2022-08-05T08:41:52.327Z,27.82
2022-08-05T08:45:23.433Z,27.75
2022-08-05T08:47:47.698Z,27.88
2022-08-05T08:50:22.534Z,27.75
2022-08-05T08:52:53.368Z,27.99
2022-08-05T08:56:03.077Z,28.17
2022-08-05T08:58:12.835Z,28.25
2022-08-05T09:00:42.037Z,28.05
2022-08-05T09:03:11.391Z,28.03
2022-08-05T09:06:08.867Z,28.15
2022-08-05T09:08:26.613Z,28.23
2022-08-05T09:10:54.781Z,28.22
2022-08-05T09:13:23.636Z,28.31
2022-08-05T09:15:51.815Z,28.55
2022-08-05T09:18:19.013Z,28.47
2022-08-05T09:20:47.223Z,28.52
2022-08-05T09:23:18.646Z,28.56
2022-08-05T09:26:02.879Z,28.54
2022-08-05T09:28:34.291Z,28.46
2022-08-05T09:31:18.313Z,28.45
2022-08-05T09:33:58.323Z,28.52
2022-08-05T09:36:55.106Z,28.48
2022-08-05T09:39:41.571Z,28.32
2022-08-05T09:42:24.483Z,28.51
2022-08-05T09:45:03.401Z,28.50
2022-08-05T09:47:55.388Z,28.28
2022-08-05T09:50:44.079Z,28.28
2022-08-05T09:53:23.023Z,28.43
2022-08-05T09:56:04.465Z,28.41
2022-08-05T09:58:32.412Z,28.43
2022-08-05T10:01:13.527Z,28.55
2022-08-05T10:04:00.410Z,28.63
2022-08-05T10:06:28.334Z,28.56
2022-08-05T10:08:56.940Z,28.30
2022-08-05T10:11:31.429Z,28.17
2022-08-05T10:14:24.602Z,28.05
2022-08-05T10:16:58.853Z,28.04
2022-08-05T10:20:03.109Z,27.97
2022-08-05T10:22:15.773Z,27.81
2022-08-05T10:24:57.299Z,27.84
2022-08-05T10:27:26.223Z,27.77
2022-08-05T10:32:48.662Z,27.95
2022-08-05T10:33:01.116Z,28.19
2022-08-05T10:35:33.740Z,28.32
2022-08-05T10:38:08.623Z,28.61
2022-08-05T10:41:05.506Z,28.70
2022-08-05T10:43:52.935Z,28.56
2022-08-05T10:46:54.256Z,28.35
2022-08-05T10:49:27.250Z,28.47
2022-08-05T10:52:05.318Z,28.38
2022-08-05T10:55:03.083Z,28.55
2022-08-05T10:57:34.044Z,28.55
2022-08-05T11:00:20.396Z,28.53
2022-08-05T11:03:23.633Z,28.77
2022-08-05T11:06:15.283Z,28.97
2022-08-05T11:09:13.059Z,29.21
2022-08-05T11:11:52.428Z,29.37
2022-08-05T11:15:01.315Z,28.99
2022-08-05T11:18:00.322Z,28.86
2022-08-05T11:20:33.066Z,28.81
2022-08-05T11:23:05.858Z,28.94
2022-08-05T11:26:09.223Z,28.89
2022-08-05T11:28:55.951Z,28.84
2022-08-05T11:31:58.329Z,28.81
2022-08-05T11:34:51.689Z,28.95
2022-08-05T11:38:37.087Z,28.88
2022-08-05T11:41:35.123Z,28.71
2022-08-05T11:44:05.616Z,28.85
2022-08-05T11:46:58.143Z,28.88
2022-08-05T11:49:33.750Z,28.90
2022-08-05T11:52:11.382Z,28.90
2022-08-05T11:54:41.593Z,28.90
2022-08-05T11:57:24.887Z,29.01
2022-08-05T11:59:53.728Z,29.05
2022-08-05T12:02:36.142Z,28.83
2022-08-05T12:05:07.117Z,29.05
2022-08-05T12:08:07.388Z,28.98
2022-08-05T12:10:43.442Z,29.10
2022-08-05T12:13:28.330Z,29.02
2022-08-05T12:16:14.449Z,28.87
2022-08-05T12:18:49.635Z,29.36
2022-08-05T12:21:30.218Z,29.55
2022-08-05T12:24:09.369Z,29.58
2022-08-05T12:27:09.511Z,29.79
2022-08-05T12:29:39.766Z,29.79
2022-08-05T12:32:09.606Z,29.64
2022-08-05T12:34:37.523Z,29.77
2022-08-05T12:37:17.337Z,29.63
2022-08-05T12:39:53.793Z,29.48
2022-08-05T12:42:21.583Z,29.29
2022-08-05T12:44:52.681Z,29.25
2022-08-05T12:47:30.713Z,29.33
2022-08-05T12:50:04.651Z,29.36
2022-08-05T12:52:39.679Z,29.32
2022-08-05T12:55:25.662Z,29.33
2022-08-05T12:58:52.626Z,29.21
2022-08-05T13:02:01.595Z,29.35
2022-08-05T13:03:38.936Z,29.44
2022-08-05T13:06:12.544Z,29.35
2022-08-05T13:08:40.425Z,29.17
2022-08-05T13:11:08.029Z,29.19
2022-08-05T13:14:05.398Z,29.16
2022-08-05T13:16:27.836Z,28.99
2022-08-05T13:18:58.413Z,29.05
2022-08-05T13:21:28.349Z,28.93
2022-08-05T13:24:08.699Z,28.98
2022-08-05T13:26:36.303Z,28.85
2022-08-05T13:29:05.156Z,28.91
2022-08-05T13:31:34.072Z,28.97
2022-08-05T13:34:25.957Z,29.07
2022-08-05T13:36:54.328Z,29.07
2022-08-05T13:39:24.757Z,29.11
2022-08-05T13:42:14.386Z,29.10
2022-08-05T13:44:45.862Z,29.14
2022-08-05T13:47:35.717Z,29.27
2022-08-05T13:50:06.779Z,29.11
2022-08-05T13:52:38.596Z,29.26
2022-08-05T13:55:09.897Z,29.32
2022-08-05T13:57:51.308Z,29.26
2022-08-05T14:00:27.707Z,29.16
2022-08-05T14:02:57.713Z,29.10
2022-08-05T14:05:29.463Z,29.17
2022-08-05T14:08:21.344Z,29.17
2022-08-05T14:11:03.311Z,29.09
2022-08-05T14:13:44.229Z,28.93
2022-08-05T14:16:17.055Z,29.16
2022-08-05T14:18:48.547Z,29.13
2022-08-05T14:22:07.047Z,29.04
2022-08-05T14:24:04.434Z,29.22
2022-08-05T14:26:38.576Z,29.17
2022-08-05T14:29:16.473Z,29.14
2022-08-05T14:32:02.163Z,29.23
2022-08-05T14:34:35.441Z,29.20
2022-08-05T14:37:05.055Z,29.28
2022-08-05T14:39:49.418Z,29.07
2022-08-05T14:42:29.464Z,29.18
2022-08-05T14:44:56.903Z,29.14
2022-08-05T14:48:05.016Z,29.23
2022-08-05T14:50:18.514Z,29.12
2022-08-05T14:52:58.334Z,29.24
2022-08-05T14:55:38.748Z,29.19
2022-08-05T14:58:11.714Z,29.11
2022-08-05T15:00:58.590Z,28.97
2022-08-05T15:03:33.278Z,29.01
2022-08-05T15:06:07.756Z,28.99
2022-08-05T15:08:58.230Z,28.83
2022-08-05T15:11:50.920Z,28.98
2022-08-05T15:14:34.010Z,29.02
2022-08-05T15:17:00.482Z,28.75
2022-08-05T15:32:42.994Z,28.58
2022-08-05T15:35:12.313Z,28.71
2022-08-05T15:38:34.522Z,28.75
2022-08-05T15:40:59.325Z,28.66
2022-08-05T15:43:20.652Z,28.65
2022-08-05T15:46:00.131Z,28.58
2022-08-05T15:48:30.133Z,28.54
2022-08-05T15:50:58.330Z,28.62
2022-08-05T15:53:37.855Z,28.50
2022-08-05T15:56:17.851Z,28.39
2022-08-05T15:58:45.034Z,28.34
2022-08-05T16:01:16.044Z,28.39
2022-08-05T16:03:48.467Z,28.43
2022-08-05T16:06:19.933Z,28.41
2022-08-05T16:08:50.215Z,28.38
2022-08-05T16:11:20.839Z,28.36
2022-08-05T16:14:05.952Z,28.30
2022-08-05T16:16:35.262Z,28.20
2022-08-05T16:19:02.617Z,28.20
2022-08-05T16:21:58.592Z,28.37
2022-08-05T16:24:41.908Z,28.40
2022-08-05T16:27:05.307Z,28.06
2022-08-05T16:29:37.038Z,27.82
2022-08-05T16:32:09.692Z,27.82
2022-08-05T16:34:41.811Z,27.68
2022-08-05T16:38:01.915Z,27.50
2022-08-05T16:40:05.190Z,27.55
2022-08-05T16:42:34.923Z,27.42
2022-08-05T16:45:06.041Z,27.29
2022-08-05T16:47:55.461Z,27.27
2022-08-05T16:50:25.678Z,27.33
2022-08-05T16:52:52.841Z,27.22
2022-08-05T16:55:24.482Z,27.10
2022-08-05T16:58:00.459Z,27.01
2022-08-05T17:00:34.617Z,26.89
2022-08-05T17:03:03.609Z,26.77
2022-08-05T17:05:32.221Z,26.84
2022-08-05T17:07:59.328Z,26.66
2022-08-05T17:10:30.508Z,26.64
2022-08-05T17:12:58.210Z,26.69
2022-08-05T17:15:29.342Z,26.57
2022-08-05T17:18:14.912Z,26.52
2022-08-05T17:20:42.890Z,26.40
2022-08-05T17:24:03.468Z,26.41
2022-08-05T17:25:58.548Z,26.41
2022-08-05T17:28:26.238Z,26.38
2022-08-05T17:30:56.163Z,26.38
2022-08-05T17:33:23.366Z,26.27
2022-08-05T17:36:07.442Z,26.23
2022-08-05T17:38:37.550Z,26.17
2022-08-05T17:41:22.927Z,26.12
2022-08-05T17:43:55.526Z,26.04
2022-08-05T17:46:23.760Z,25.99
2022-08-05T17:48:50.876Z,25.88
2022-08-05T17:51:21.898Z,25.89
2022-08-05T17:53:50.760Z,25.90
2022-08-05T17:56:22.580Z,25.69
2022-08-05T17:58:51.150Z,25.67
2022-08-05T18:01:18.805Z,25.69
2022-08-05T18:03:59.666Z,25.67
2022-08-05T18:06:32.423Z,25.40
2022-08-05T18:08:59.718Z,25.59
2022-08-05T18:11:33.150Z,25.55
2022-08-05T18:14:03.650Z,25.45
2022-08-05T18:16:32.543Z,25.50
2022-08-05T18:18:59.694Z,25.47
2022-08-05T18:21:28.115Z,25.43
2022-08-05T18:24:14.481Z,25.25
2022-08-05T18:26:41.871Z,25.40
2022-08-05T18:29:11.089Z,25.34
2022-08-05T18:31:38.584Z,25.34
2022-08-05T18:34:12.268Z,25.30
2022-08-05T18:36:41.354Z,25.27
2022-08-05T18:39:42.264Z,25.21
2022-08-05T18:42:06.185Z,25.20
2022-08-05T18:44:51.523Z,25.16
2022-08-05T18:47:22.873Z,25.13
2022-08-05T18:50:12.814Z,25.09
2022-08-05T18:52:50.986Z,25.06
2022-08-05T18:55:20.402Z,25.00
2022-08-05T18:57:52.756Z,24.97
2022-08-05T19:00:26.967Z,24.87
2022-08-05T19:02:56.999Z,24.97
2022-08-05T19:08:13.706Z,24.87
2022-08-05T19:10:42.384Z,24.87
2022-08-05T19:13:12.466Z,24.80
2022-08-05T19:16:00.064Z,24.78
2022-08-05T19:18:30.861Z,24.77
2022-08-05T19:20:59.665Z,24.73
2022-08-05T19:24:07.957Z,24.70
2022-08-05T19:26:16.640Z,24.61
2022-08-05T19:28:44.058Z,24.62
2022-08-05T19:31:13.306Z,24.54
2022-08-05T19:33:48.279Z,24.57
2022-08-05T19:36:25.611Z,24.48
2022-08-05T19:39:01.077Z,24.56
2022-08-05T19:41:58.231Z,24.48
2022-08-05T19:44:21.066Z,24.46
2022-08-05T19:46:50.313Z,24.46
2022-08-05T19:49:17.990Z,24.38
2022-08-05T19:52:04.616Z,24.35
2022-08-05T19:54:35.392Z,24.28
2022-08-05T19:57:06.471Z,24.28
2022-08-05T20:00:00.590Z,24.22
2022-08-05T20:02:27.119Z,24.10
2022-08-05T20:04:58.720Z,24.09
2022-08-05T20:07:47.122Z,24.18
2022-08-05T20:10:19.170Z,24.17
2022-08-05T20:12:49.465Z,24.14
2022-08-05T20:15:48.561Z,24.12
2022-08-05T20:18:09.732Z,24.14
2022-08-05T20:20:55.074Z,24.11
2022-08-05T20:23:23.904Z,24.10
2022-08-05T20:26:09.220Z,24.05
2022-08-05T20:28:45.467Z,23.95
2022-08-05T20:31:12.987Z,24.01
2022-08-05T20:33:42.346Z,23.96
2022-08-05T20:36:11.032Z,23.98
2022-08-05T20:38:40.915Z,24.01
2022-08-05T20:41:24.085Z,23.93
2022-08-05T20:43:58.829Z,23.79
2022-08-05T20:46:30.173Z,23.88
2022-08-05T20:48:57.505Z,23.85
2022-08-05T20:51:24.694Z,23.85
2022-08-05T20:53:56.353Z,23.83
2022-08-05T20:56:28.666Z,23.80
2022-08-05T20:58:59.851Z,23.79
2022-08-05T21:01:37.499Z,23.74
2022-08-05T21:04:07.334Z,23.76
2022-08-05T21:06:38.123Z,23.76
2022-08-05T21:09:15.070Z,23.80
2022-08-05T21:12:10.655Z,23.71
2022-08-05T21:14:31.476Z,23.56
2022-08-05T21:17:06.274Z,23.66
2022-08-05T21:19:47.582Z,23.67
2022-08-05T21:22:23.577Z,23.64
2022-08-05T21:24:59.276Z,23.64
2022-08-05T21:27:27.502Z,23.59
2022-08-05T21:29:58.288Z,23.55
2022-08-05T21:32:31.419Z,23.53
2022-08-05T21:35:18.206Z,23.53
2022-08-05T21:37:47.300Z,23.49
2022-08-05T21:40:22.441Z,23.48
2022-08-05T21:42:52.670Z,23.42
2022-08-05T21:45:24.304Z,23.42
2022-08-05T21:47:56.340Z,23.41
2022-08-05T21:50:26.400Z,23.38
2022-08-05T21:52:53.934Z,23.37
2022-08-05T21:56:01.110Z,23.31
2022-08-05T21:58:13.338Z,23.33
2022-08-05T22:00:40.737Z,23.31
2022-08-05T22:03:17.998Z,23.28
2022-08-05T22:05:48.637Z,23.26
2022-08-05T22:08:22.348Z,23.25
2022-08-05T22:10:51.808Z,23.22
2022-08-05T22:14:34.265Z,23.22
2022-08-05T22:16:26.051Z,23.19
2022-08-05T22:18:58.786Z,23.15
2022-08-05T22:21:26.194Z,23.15
2022-08-05T22:24:13.445Z,23.15
2022-08-05T22:27:17.718Z,23.08
2022-08-05T22:29:44.872Z,23.05
2022-08-05T22:32:17.568Z,23.03
2022-08-05T22:34:50.225Z,23.03
2022-08-05T22:37:17.321Z,22.98
2022-08-05T22:39:45.844Z,22.95
2022-08-05T22:42:21.510Z,22.95
2022-08-05T22:44:56.426Z,22.91
2022-08-05T22:47:29.441Z,22.86
2022-08-05T22:50:20.748Z,22.85
2022-08-05T22:52:49.804Z,22.82
2022-08-05T22:55:21.452Z,22.83
2022-08-05T22:57:50.498Z,22.80
2022-08-05T23:00:20.707Z,22.68
2022-08-05T23:02:49.980Z,22.77
2022-08-05T23:05:18.355Z,22.78
2022-08-05T23:07:49.688Z,22.68
2022-08-05T23:10:23.919Z,22.66
2022-08-05T23:12:54.210Z,22.66
2022-08-05T23:15:29.943Z,22.72
2022-08-05T23:18:03.691Z,22.70
2022-08-05T23:20:38.543Z,22.68
2022-08-05T23:23:08.211Z,22.59
2022-08-05T23:25:54.635Z,22.65
2022-08-05T23:28:28.641Z,22.59
2022-08-05T23:31:07.066Z,22.49
2022-08-05T23:34:04.606Z,22.54
2022-08-05T23:36:38.533Z,22.52
2022-08-05T23:39:07.811Z,22.51
2022-08-05T23:41:40.931Z,22.53
2022-08-05T23:44:09.019Z,22.51
2022-08-05T23:46:37.491Z,22.49
2022-08-05T23:49:16.831Z,22.48
2022-08-05T23:52:03.346Z,22.47
2022-08-05T23:54:36.542Z,22.43
2022-08-05T23:57:07.434Z,22.39
